sensor_id;sensor_type;location;lat;lon;timestamp;pressure;altitude;pressure_sealevel;temperature;humidity
47330;BME280;33060;50.178;7.570;2023-02-04T00:00:15;98351.84;;;6.54;83.41
47330;BME280;33060;50.178;7.570;2023-02-04T00:02:42;98343.19;;;6.51;83.16
47330;BME280;33060;50.178;7.570;2023-02-04T00:05:10;98342.47;;;6.46;83.87
47330;BME280;33060;50.178;7.570;2023-02-04T00:07:37;98355.72;;;6.42;83.86
47330;BME280;33060;50.178;7.570;2023-02-04T00:10:08;98351.44;;;6.39;83.63
47330;BME280;33060;50.178;7.570;2023-02-04T00:12:35;98350.66;;;6.37;83.73
47330;BME280;33060;50.178;7.570;2023-02-04T00:15:01;98351.34;;;6.42;83.65
47330;BME280;33060;50.178;7.570;2023-02-04T00:17:28;98349.00;;;6.35;84.63
47330;BME280;33060;50.178;7.570;2023-02-04T00:19:55;98342.84;;;6.36;83.62
47330;BME280;33060;50.178;7.570;2023-02-04T00:22:22;98359.50;;;6.33;83.72
47330;BME280;33060;50.178;7.570;2023-02-04T00:24:48;98350.84;;;6.31;84.58
47330;BME280;33060;50.178;7.570;2023-02-04T00:27:16;98356.13;;;6.30;84.42
47330;BME280;33060;50.178;7.570;2023-02-04T00:29:42;98351.78;;;6.29;85.28
47330;BME280;33060;50.178;7.570;2023-02-04T00:32:09;98363.03;;;6.32;85.82
47330;BME280;33060;50.178;7.570;2023-02-04T00:34:36;98363.31;;;6.23;86.40
47330;BME280;33060;50.178;7.570;2023-02-04T00:37:03;98367.88;;;6.18;86.36
47330;BME280;33060;50.178;7.570;2023-02-04T00:39:30;98371.13;;;6.24;86.04
47330;BME280;33060;50.178;7.570;2023-02-04T00:41:57;98373.84;;;6.21;85.59
47330;BME280;33060;50.178;7.570;2023-02-04T00:44:23;98372.25;;;6.17;86.54
47330;BME280;33060;50.178;7.570;2023-02-04T00:46:50;98383.91;;;6.07;88.45
47330;BME280;33060;50.178;7.570;2023-02-04T00:49:16;98383.16;;;6.04;88.48
47330;BME280;33060;50.178;7.570;2023-02-04T00:51:43;98387.69;;;5.97;90.03
47330;BME280;33060;50.178;7.570;2023-02-04T00:54:12;98385.44;;;5.85;91.53
47330;BME280;33060;50.178;7.570;2023-02-04T00:56:41;98395.13;;;5.81;92.58
47330;BME280;33060;50.178;7.570;2023-02-04T00:59:09;98401.38;;;5.77;93.85
47330;BME280;33060;50.178;7.570;2023-02-04T01:01:36;98400.59;;;5.74;94.29
47330;BME280;33060;50.178;7.570;2023-02-04T01:04:03;98391.97;;;5.70;95.74
47330;BME280;33060;50.178;7.570;2023-02-04T01:06:30;98396.66;;;5.59;97.73
47330;BME280;33060;50.178;7.570;2023-02-04T01:08:56;98392.50;;;5.52;98.96
47330;BME280;33060;50.178;7.570;2023-02-04T01:11:23;98395.06;;;5.53;99.30
47330;BME280;33060;50.178;7.570;2023-02-04T01:13:50;98394.34;;;5.48;100.00
47330;BME280;33060;50.178;7.570;2023-02-04T01:16:17;98399.75;;;5.42;100.00
47330;BME280;33060;50.178;7.570;2023-02-04T01:18:44;98405.88;;;5.41;100.00
47330;BME280;33060;50.178;7.570;2023-02-04T01:21:11;98412.03;;;5.40;100.00
47330;BME280;33060;50.178;7.570;2023-02-04T01:23:37;98404.34;;;5.34;100.00
47330;BME280;33060;50.178;7.570;2023-02-04T01:26:06;98411.28;;;5.35;100.00
47330;BME280;33060;50.178;7.570;2023-02-04T01:28:33;98412.19;;;5.34;100.00
47330;BME280;33060;50.178;7.570;2023-02-04T01:30:59;98415.06;;;5.25;100.00
47330;BME280;33060;50.178;7.570;2023-02-04T01:33:26;98422.84;;;5.26;100.00
47330;BME280;33060;50.178;7.570;2023-02-04T01:35:53;98430.78;;;5.23;100.00
47330;BME280;33060;50.178;7.570;2023-02-04T01:38:20;98439.47;;;5.25;100.00
47330;BME280;33060;50.178;7.570;2023-02-04T01:40:47;98430.09;;;5.17;100.00
47330;BME280;33060;50.178;7.570;2023-02-04T01:43:13;98425.63;;;5.22;100.00
47330;BME280;33060;50.178;7.570;2023-02-04T01:45:40;98433.47;;;5.20;100.00
47330;BME280;33060;50.178;7.570;2023-02-04T01:48:07;98435.22;;;5.21;100.00
47330;BME280;33060;50.178;7.570;2023-02-04T01:50:35;98438.72;;;5.20;100.00
47330;BME280;33060;50.178;7.570;2023-02-04T01:53:02;98431.84;;;5.16;100.00
47330;BME280;33060;50.178;7.570;2023-02-04T01:55:31;98442.41;;;5.11;100.00
47330;BME280;33060;50.178;7.570;2023-02-04T01:57:59;98443.28;;;5.12;100.00
47330;BME280;33060;50.178;7.570;2023-02-04T02:00:30;98452.03;;;5.11;100.00
47330;BME280;33060;50.178;7.570;2023-02-04T02:02:59;98438.88;;;5.14;100.00
47330;BME280;33060;50.178;7.570;2023-02-04T02:05:42;98441.53;;;5.13;100.00
47330;BME280;33060;50.178;7.570;2023-02-04T02:08:10;98434.63;;;5.10;100.00
47330;BME280;33060;50.178;7.570;2023-02-04T02:10:38;98437.47;;;5.01;100.00
47330;BME280;33060;50.178;7.570;2023-02-04T02:13:07;98446.13;;;5.03;100.00
47330;BME280;33060;50.178;7.570;2023-02-04T02:15:37;98446.13;;;5.04;100.00
47330;BME280;33060;50.178;7.570;2023-02-04T02:18:04;98447.88;;;5.04;100.00
47330;BME280;33060;50.178;7.570;2023-02-04T02:20:32;98453.91;;;5.06;100.00
47330;BME280;33060;50.178;7.570;2023-02-04T02:23:03;98450.50;;;5.04;100.00
47330;BME280;33060;50.178;7.570;2023-02-04T02:25:32;98443.50;;;5.03;100.00
47330;BME280;33060;50.178;7.570;2023-02-04T02:27:59;98446.97;;;5.05;100.00
47330;BME280;33060;50.178;7.570;2023-02-04T02:30:27;98452.13;;;5.08;100.00
47330;BME280;33060;50.178;7.570;2023-02-04T02:32:55;98455.63;;;5.07;100.00
47330;BME280;33060;50.178;7.570;2023-02-04T02:35:22;98455.72;;;5.04;100.00
47330;BME280;33060;50.178;7.570;2023-02-04T02:37:49;98462.66;;;5.05;100.00
47330;BME280;33060;50.178;7.570;2023-02-04T02:40:16;98467.00;;;5.06;100.00
47330;BME280;33060;50.178;7.570;2023-02-04T02:42:44;98477.56;;;5.01;100.00
47330;BME280;33060;50.178;7.570;2023-02-04T02:45:21;98474.91;;;5.03;100.00
47330;BME280;33060;50.178;7.570;2023-02-04T02:47:49;98486.25;;;5.02;100.00
47330;BME280;33060;50.178;7.570;2023-02-04T02:50:20;98482.06;;;4.96;100.00
47330;BME280;33060;50.178;7.570;2023-02-04T02:52:47;98478.59;;;4.94;100.00
47330;BME280;33060;50.178;7.570;2023-02-04T02:55:16;98486.44;;;4.94;100.00
47330;BME280;33060;50.178;7.570;2023-02-04T02:57:45;98482.06;;;4.96;100.00
47330;BME280;33060;50.178;7.570;2023-02-04T03:00:28;98493.28;;;5.00;100.00
47330;BME280;33060;50.178;7.570;2023-02-04T03:03:04;98496.91;;;4.94;100.00
47330;BME280;33060;50.178;7.570;2023-02-04T03:05:35;98496.03;;;4.94;100.00
47330;BME280;33060;50.178;7.570;2023-02-04T03:08:04;98493.44;;;4.94;100.00
47330;BME280;33060;50.178;7.570;2023-02-04T03:10:31;98495.31;;;4.89;100.00
47330;BME280;33060;50.178;7.570;2023-02-04T03:12:58;98498.66;;;4.94;100.00
47330;BME280;33060;50.178;7.570;2023-02-04T03:15:25;98501.34;;;4.91;100.00
47330;BME280;33060;50.178;7.570;2023-02-04T03:17:52;98496.97;;;4.91;100.00
47330;BME280;33060;50.178;7.570;2023-02-04T03:20:24;98499.59;;;4.91;100.00
47330;BME280;33060;50.178;7.570;2023-02-04T03:22:52;98499.59;;;4.91;100.00
47330;BME280;33060;50.178;7.570;2023-02-04T03:25:19;98497.13;;;4.87;100.00
47330;BME280;33060;50.178;7.570;2023-02-04T03:27:51;98503.16;;;4.89;100.00
47330;BME280;33060;50.178;7.570;2023-02-04T03:30:21;98504.06;;;4.86;100.00
47330;BME280;33060;50.178;7.570;2023-02-04T03:32:48;98507.75;;;4.79;100.00
47330;BME280;33060;50.178;7.570;2023-02-04T03:35:15;98517.13;;;4.86;100.00
47330;BME280;33060;50.178;7.570;2023-02-04T03:37:42;98519.84;;;4.83;100.00
47330;BME280;33060;50.178;7.570;2023-02-04T03:40:10;98515.59;;;4.77;100.00
47330;BME280;33060;50.178;7.570;2023-02-04T03:42:37;98508.53;;;4.82;100.00
47330;BME280;33060;50.178;7.570;2023-02-04T03:45:04;98515.47;;;4.83;100.00
47330;BME280;33060;50.178;7.570;2023-02-04T03:47:31;98510.31;;;4.80;100.00
47330;BME280;33060;50.178;7.570;2023-02-04T03:49:58;98512.84;;;4.83;100.00
47330;BME280;33060;50.178;7.570;2023-02-04T03:52:25;98517.19;;;4.85;100.00
47330;BME280;33060;50.178;7.570;2023-02-04T03:54:51;98516.38;;;4.82;100.00
47330;BME280;33060;50.178;7.570;2023-02-04T03:57:18;98520.00;;;4.75;100.00
47330;BME280;33060;50.178;7.570;2023-02-04T03:59:44;98525.19;;;4.77;100.00
47330;BME280;33060;50.178;7.570;2023-02-04T04:02:11;98521.63;;;4.81;100.00
47330;BME280;33060;50.178;7.570;2023-02-04T04:04:38;98529.44;;;4.82;100.00
47330;BME280;33060;50.178;7.570;2023-02-04T04:07:04;98525.16;;;4.80;100.00
47330;BME280;33060;50.178;7.570;2023-02-04T04:09:32;98520.84;;;4.77;100.00
47330;BME280;33060;50.178;7.570;2023-02-04T04:11:58;98522.72;;;4.72;100.00
47330;BME280;33060;50.178;7.570;2023-02-04T04:14:26;98521.78;;;4.75;100.00
47330;BME280;33060;50.178;7.570;2023-02-04T04:16:53;98519.19;;;4.73;100.00
47330;BME280;33060;50.178;7.570;2023-02-04T04:19:28;98528.66;;;4.77;100.00
47330;BME280;33060;50.178;7.570;2023-02-04T04:22:06;98525.19;;;4.78;100.00
47330;BME280;33060;50.178;7.570;2023-02-04T04:24:33;98519.94;;;4.80;100.00
47330;BME280;33060;50.178;7.570;2023-02-04T04:27:00;98520.78;;;4.80;100.00
47330;BME280;33060;50.178;7.570;2023-02-04T04:29:26;98529.47;;;4.81;100.00
47330;BME280;33060;50.178;7.570;2023-02-04T04:31:53;98539.72;;;4.90;100.00
47330;BME280;33060;50.178;7.570;2023-02-04T04:34:19;98540.56;;;4.91;100.00
47330;BME280;33060;50.178;7.570;2023-02-04T04:36:46;98552.03;;;4.87;100.00
47330;BME280;33060;50.178;7.570;2023-02-04T04:39:13;98549.41;;;4.87;100.00
47330;BME280;33060;50.178;7.570;2023-02-04T04:41:39;98544.22;;;4.83;100.00
47330;BME280;33060;50.178;7.570;2023-02-04T04:44:06;98550.44;;;4.79;100.00
47330;BME280;33060;50.178;7.570;2023-02-04T04:46:33;98543.41;;;4.81;100.00
47330;BME280;33060;50.178;7.570;2023-02-04T04:48:59;98539.97;;;4.79;100.00
47330;BME280;33060;50.178;7.570;2023-02-04T04:51:26;98539.16;;;4.76;100.00
47330;BME280;33060;50.178;7.570;2023-02-04T04:53:58;98543.59;;;4.74;100.00
47330;BME280;33060;50.178;7.570;2023-02-04T04:56:25;98540.88;;;4.78;100.00
47330;BME280;33060;50.178;7.570;2023-02-04T04:58:51;98544.31;;;4.80;100.00
47330;BME280;33060;50.178;7.570;2023-02-04T05:01:18;98536.50;;;4.79;100.00
47330;BME280;33060;50.178;7.570;2023-02-04T05:03:47;98539.22;;;4.74;100.00
47330;BME280;33060;50.178;7.570;2023-02-04T05:06:13;98536.69;;;4.71;100.00
47330;BME280;33060;50.178;7.570;2023-02-04T05:08:40;98541.06;;;4.71;100.00
47330;BME280;33060;50.178;7.570;2023-02-04T05:11:07;98546.31;;;4.68;100.00
47330;BME280;33060;50.178;7.570;2023-02-04T05:13:33;98541.94;;;4.70;100.00
47330;BME280;33060;50.178;7.570;2023-02-04T05:16:00;98536.81;;;4.65;100.00
47330;BME280;33060;50.178;7.570;2023-02-04T05:18:27;98546.38;;;4.66;100.00
47330;BME280;33060;50.178;7.570;2023-02-04T05:20:53;98536.00;;;4.63;100.00
47330;BME280;33060;50.178;7.570;2023-02-04T05:23:20;98537.72;;;4.64;100.00
47330;BME280;33060;50.178;7.570;2023-02-04T05:25:46;98548.19;;;4.63;100.00
47330;BME280;33060;50.178;7.570;2023-02-04T05:28:13;98542.13;;;4.62;100.00
47330;BME280;33060;50.178;7.570;2023-02-04T05:30:40;98542.16;;;4.61;100.00
47330;BME280;33060;50.178;7.570;2023-02-04T05:33:06;98550.84;;;4.61;100.00
47330;BME280;33060;50.178;7.570;2023-02-04T05:35:33;98554.34;;;4.60;100.00
47330;BME280;33060;50.178;7.570;2023-02-04T05:38:00;98559.72;;;4.54;100.00
47330;BME280;33060;50.178;7.570;2023-02-04T05:40:26;98567.47;;;4.57;100.00
47330;BME280;33060;50.178;7.570;2023-02-04T05:42:53;98575.47;;;4.49;100.00
47330;BME280;33060;50.178;7.570;2023-02-04T05:45:19;98579.03;;;4.47;100.00
47330;BME280;33060;50.178;7.570;2023-02-04T05:47:46;98578.00;;;4.54;100.00
47330;BME280;33060;50.178;7.570;2023-02-04T05:50:13;98569.28;;;4.55;100.00
47330;BME280;33060;50.178;7.570;2023-02-04T05:52:40;98571.88;;;4.55;100.00
47330;BME280;33060;50.178;7.570;2023-02-04T05:55:09;98577.84;;;4.60;100.00
47330;BME280;33060;50.178;7.570;2023-02-04T05:57:37;98578.75;;;4.61;100.00
47330;BME280;33060;50.178;7.570;2023-02-04T06:00:05;98572.53;;;4.65;100.00
47330;BME280;33060;50.178;7.570;2023-02-04T06:02:38;98574.22;;;4.67;100.00
47330;BME280;33060;50.178;7.570;2023-02-04T06:05:05;98570.63;;;4.73;100.00
47330;BME280;33060;50.178;7.570;2023-02-04T06:07:31;98575.84;;;4.73;100.00
47330;BME280;33060;50.178;7.570;2023-02-04T06:09:58;98583.72;;;4.71;100.00
47330;BME280;33060;50.178;7.570;2023-02-04T06:12:26;98590.75;;;4.69;100.00
47330;BME280;33060;50.178;7.570;2023-02-04T06:14:52;98602.06;;;4.70;100.00
47330;BME280;33060;50.178;7.570;2023-02-04T06:17:19;98604.59;;;4.73;100.00
47330;BME280;33060;50.178;7.570;2023-02-04T06:19:45;98596.72;;;4.74;100.00
47330;BME280;33060;50.178;7.570;2023-02-04T06:22:13;98597.53;;;4.76;100.00
47330;BME280;33060;50.178;7.570;2023-02-04T06:24:40;98607.97;;;4.78;100.00
47330;BME280;33060;50.178;7.570;2023-02-04T06:27:06;98614.22;;;4.71;100.00
47330;BME280;33060;50.178;7.570;2023-02-04T06:29:33;98623.88;;;4.67;100.00
47330;BME280;33060;50.178;7.570;2023-02-04T06:32:00;98625.59;;;4.70;100.00
47330;BME280;33060;50.178;7.570;2023-02-04T06:34:26;98629.75;;;4.77;100.00
47330;BME280;33060;50.178;7.570;2023-02-04T06:36:53;98639.38;;;4.76;100.00
47330;BME280;33060;50.178;7.570;2023-02-04T06:39:19;98640.28;;;4.74;100.00
47330;BME280;33060;50.178;7.570;2023-02-04T06:41:46;98650.00;;;4.67;100.00
47330;BME280;33060;50.178;7.570;2023-02-04T06:44:13;98650.81;;;4.71;100.00
47330;BME280;33060;50.178;7.570;2023-02-04T06:46:39;98647.31;;;4.72;100.00
47330;BME280;33060;50.178;7.570;2023-02-04T06:49:06;98636.91;;;4.70;100.00
47330;BME280;33060;50.178;7.570;2023-02-04T06:51:32;98644.66;;;4.73;100.00
47330;BME280;33060;50.178;7.570;2023-02-04T06:53:59;98642.94;;;4.72;100.00
47330;BME280;33060;50.178;7.570;2023-02-04T06:56:26;98646.38;;;4.74;100.00
47330;BME280;33060;50.178;7.570;2023-02-04T06:58:54;98659.41;;;4.76;100.00
47330;BME280;33060;50.178;7.570;2023-02-04T07:01:21;98666.41;;;4.75;100.00
47330;BME280;33060;50.178;7.570;2023-02-04T07:03:48;98659.41;;;4.76;100.00
47330;BME280;33060;50.178;7.570;2023-02-04T07:06:14;98656.81;;;4.76;100.00
47330;BME280;33060;50.178;7.570;2023-02-04T07:08:41;98667.22;;;4.77;100.00
47330;BME280;33060;50.178;7.570;2023-02-04T07:11:08;98671.59;;;4.78;100.00
47330;BME280;33060;50.178;7.570;2023-02-04T07:13:34;98677.69;;;4.77;100.00
47330;BME280;33060;50.178;7.570;2023-02-04T07:16:01;98682.91;;;4.79;100.00
47330;BME280;33060;50.178;7.570;2023-02-04T07:18:28;98682.91;;;4.79;100.00
47330;BME280;33060;50.178;7.570;2023-02-04T07:20:54;98680.28;;;4.77;100.00
47330;BME280;33060;50.178;7.570;2023-02-04T07:23:21;98686.28;;;4.82;100.00
47330;BME280;33060;50.178;7.570;2023-02-04T07:25:50;98676.66;;;4.85;100.00
47330;BME280;33060;50.178;7.570;2023-02-04T07:28:19;98680.94;;;4.89;100.00
47330;BME280;33060;50.178;7.570;2023-02-04T07:30:45;98687.03;;;4.89;100.00
47330;BME280;33060;50.178;7.570;2023-02-04T07:33:12;98702.03;;;4.81;100.00
47330;BME280;33060;50.178;7.570;2023-02-04T07:35:39;98704.41;;;4.92;100.00
47330;BME280;33060;50.178;7.570;2023-02-04T07:38:05;98719.19;;;4.93;100.00
47330;BME280;33060;50.178;7.570;2023-02-04T07:40:33;98713.97;;;4.93;100.00
47330;BME280;33060;50.178;7.570;2023-02-04T07:43:00;98707.81;;;4.97;100.00
47330;BME280;33060;50.178;7.570;2023-02-04T07:45:27;98707.75;;;4.98;100.00
47330;BME280;33060;50.178;7.570;2023-02-04T07:47:54;98717.41;;;4.96;100.00
47330;BME280;33060;50.178;7.570;2023-02-04T07:50:21;98715.38;;;5.09;100.00
47330;BME280;33060;50.178;7.570;2023-02-04T07:52:47;98711.03;;;5.08;100.00
47330;BME280;33060;50.178;7.570;2023-02-04T07:55:14;98714.44;;;5.13;100.00
47330;BME280;33060;50.178;7.570;2023-02-04T07:57:40;98722.25;;;5.15;100.00
47330;BME280;33060;50.178;7.570;2023-02-04T08:00:08;98719.47;;;5.22;100.00
47330;BME280;33060;50.178;7.570;2023-02-04T08:02:39;98721.13;;;5.25;100.00
47330;BME280;33060;50.178;7.570;2023-02-04T08:05:08;98720.16;;;5.30;100.00
47330;BME280;33060;50.178;7.570;2023-02-04T08:07:34;98728.81;;;5.32;100.00
47330;BME280;33060;50.178;7.570;2023-02-04T08:10:03;98720.88;;;5.35;100.00
47330;BME280;33060;50.178;7.570;2023-02-04T08:12:30;98734.78;;;5.39;100.00
47330;BME280;33060;50.178;7.570;2023-02-04T08:14:56;98726.13;;;5.35;99.75
47330;BME280;33060;50.178;7.570;2023-02-04T08:17:23;98729.56;;;5.39;100.00
47330;BME280;33060;50.178;7.570;2023-02-04T08:19:50;98737.28;;;5.44;99.08
47330;BME280;33060;50.178;7.570;2023-02-04T08:22:16;98732.09;;;5.42;98.90
47330;BME280;33060;50.178;7.570;2023-02-04T08:24:43;98741.56;;;5.46;99.92
47330;BME280;33060;50.178;7.570;2023-02-04T08:27:10;98745.78;;;5.53;99.32
47330;BME280;33060;50.178;7.570;2023-02-04T08:29:37;98748.16;;;5.64;98.25
47330;BME280;33060;50.178;7.570;2023-02-04T08:32:03;98745.53;;;5.65;98.32
47330;BME280;33060;50.178;7.570;2023-02-04T08:34:30;98750.00;;;5.60;98.50
47330;BME280;33060;50.178;7.570;2023-02-04T08:36:57;98742.38;;;5.50;98.26
47330;BME280;33060;50.178;7.570;2023-02-04T08:39:23;98749.22;;;5.57;98.22
47330;BME280;33060;50.178;7.570;2023-02-04T08:41:50;98757.06;;;5.57;97.91
47330;BME280;33060;50.178;7.570;2023-02-04T08:44:17;98749.09;;;5.61;99.47
47330;BME280;33060;50.178;7.570;2023-02-04T08:46:43;98757.81;;;5.62;97.13
47330;BME280;33060;50.178;7.570;2023-02-04T08:49:10;98761.31;;;5.61;96.94
47330;BME280;33060;50.178;7.570;2023-02-04T08:51:36;98762.19;;;5.61;98.00
47330;BME280;33060;50.178;7.570;2023-02-04T08:54:03;98764.66;;;5.67;97.27
47330;BME280;33060;50.178;7.570;2023-02-04T08:56:30;98762.78;;;5.74;96.84
47330;BME280;33060;50.178;7.570;2023-02-04T08:58:56;98756.41;;;5.84;96.56
47330;BME280;33060;50.178;7.570;2023-02-04T09:01:23;98766.75;;;5.92;94.97
47330;BME280;33060;50.178;7.570;2023-02-04T09:03:50;98762.38;;;5.89;95.36
47330;BME280;33060;50.178;7.570;2023-02-04T09:06:16;98773.41;;;6.05;94.44
47330;BME280;33060;50.178;7.570;2023-02-04T09:08:43;98769.63;;;6.17;94.52
47330;BME280;33060;50.178;7.570;2023-02-04T09:11:09;98775.50;;;6.25;90.21
47330;BME280;33060;50.178;7.570;2023-02-04T09:13:37;98775.47;;;6.28;91.04
47330;BME280;33060;50.178;7.570;2023-02-04T09:16:05;98777.25;;;6.26;91.37
47330;BME280;33060;50.178;7.570;2023-02-04T09:18:31;98784.09;;;6.32;91.38
47330;BME280;33060;50.178;7.570;2023-02-04T09:20:58;98787.38;;;6.40;91.22
47330;BME280;33060;50.178;7.570;2023-02-04T09:23:25;98788.38;;;6.36;92.78
47330;BME280;33060;50.178;7.570;2023-02-04T09:25:52;98782.50;;;6.24;91.84
47330;BME280;33060;50.178;7.570;2023-02-04T09:28:19;98785.13;;;6.26;92.93
47330;BME280;33060;50.178;7.570;2023-02-04T09:30:45;98790.59;;;6.17;91.89
47330;BME280;33060;50.178;7.570;2023-02-04T09:33:14;98784.69;;;6.09;91.36
47330;BME280;33060;50.178;7.570;2023-02-04T09:35:42;98787.22;;;6.12;90.82
47330;BME280;33060;50.178;7.570;2023-02-04T09:38:09;98788.22;;;6.06;91.58
47330;BME280;33060;50.178;7.570;2023-02-04T09:40:40;98792.53;;;6.07;93.32
47330;BME280;33060;50.178;7.570;2023-02-04T09:43:11;98810.19;;;5.99;92.16
47330;BME280;33060;50.178;7.570;2023-02-04T09:45:39;98795.84;;;6.15;90.80
47330;BME280;33060;50.178;7.570;2023-02-04T09:48:08;98806.72;;;6.36;89.83
47330;BME280;33060;50.178;7.570;2023-02-04T09:50:36;98811.81;;;6.40;88.56
47330;BME280;33060;50.178;7.570;2023-02-04T09:53:04;98819.47;;;6.49;88.87
47330;BME280;33060;50.178;7.570;2023-02-04T09:55:34;98813.81;;;6.65;87.47
47330;BME280;33060;50.178;7.570;2023-02-04T09:58:10;98826.28;;;6.89;88.02
47330;BME280;33060;50.178;7.570;2023-02-04T10:00:39;98817.31;;;6.98;86.18
47330;BME280;33060;50.178;7.570;2023-02-04T10:03:12;98835.06;;;6.88;86.23
47330;BME280;33060;50.178;7.570;2023-02-04T10:05:40;98831.50;;;6.91;87.74
47330;BME280;33060;50.178;7.570;2023-02-04T10:08:08;98829.94;;;6.84;86.18
47330;BME280;33060;50.178;7.570;2023-02-04T10:10:38;98833.47;;;7.15;85.18
47330;BME280;33060;50.178;7.570;2023-02-04T10:13:04;98839.09;;;7.32;85.17
47330;BME280;33060;50.178;7.570;2023-02-04T10:15:33;98841.22;;;7.18;82.62
47330;BME280;33060;50.178;7.570;2023-02-04T10:18:05;98835.19;;;7.16;84.72
47330;BME280;33060;50.178;7.570;2023-02-04T10:20:33;98838.41;;;6.93;83.84
47330;BME280;33060;50.178;7.570;2023-02-04T10:23:00;98838.16;;;7.02;83.13
47330;BME280;33060;50.178;7.570;2023-02-04T10:25:26;98841.63;;;7.04;81.19
47330;BME280;33060;50.178;7.570;2023-02-04T10:27:58;98837.59;;;7.24;80.60
47330;BME280;33060;50.178;7.570;2023-02-04T10:30:31;98833.94;;;7.59;80.29
47330;BME280;33060;50.178;7.570;2023-02-04T10:33:21;98842.53;;;7.64;79.39
47330;BME280;33060;50.178;7.570;2023-02-04T10:35:51;98834.53;;;7.69;78.85
47330;BME280;33060;50.178;7.570;2023-02-04T10:38:19;98827.63;;;7.66;78.68
47330;BME280;33060;50.178;7.570;2023-02-04T10:40:46;98831.94;;;7.67;78.20
47330;BME280;33060;50.178;7.570;2023-02-04T10:43:19;98839.75;;;7.41;78.80
47330;BME280;33060;50.178;7.570;2023-02-04T10:45:55;98840.06;;;7.30;79.71
47330;BME280;33060;50.178;7.570;2023-02-04T10:48:22;98838.31;;;7.29;78.78
47330;BME280;33060;50.178;7.570;2023-02-04T10:50:49;98841.84;;;7.28;78.55
47330;BME280;33060;50.178;7.570;2023-02-04T10:53:19;98837.06;;;7.42;78.89
47330;BME280;33060;50.178;7.570;2023-02-04T10:56:15;98840.44;;;7.47;79.75
47330;BME280;33060;50.178;7.570;2023-02-04T10:58:42;98836.56;;;7.59;78.21
47330;BME280;33060;50.178;7.570;2023-02-04T11:01:15;98838.47;;;7.83;76.88
47330;BME280;33060;50.178;7.570;2023-02-04T11:03:42;98828.06;;;8.08;75.90
47330;BME280;33060;50.178;7.570;2023-02-04T11:06:18;98831.88;;;7.98;78.88
47330;BME280;33060;50.178;7.570;2023-02-04T11:08:45;98827.19;;;7.80;78.84
47330;BME280;33060;50.178;7.570;2023-02-04T11:11:18;98828.47;;;7.67;79.94
47330;BME280;33060;50.178;7.570;2023-02-04T11:18:50;98840.28;;;7.52;79.88
47330;BME280;33060;50.178;7.570;2023-02-04T11:29:32;98837.25;;;8.49;76.91
47330;BME280;33060;50.178;7.570;2023-02-04T11:34:53;98846.31;;;8.13;79.00
47330;BME280;33060;50.178;7.570;2023-02-04T11:37:39;98842.09;;;8.07;79.18
47330;BME280;33060;50.178;7.570;2023-02-04T11:42:48;98835.84;;;7.83;80.91
47330;BME280;33060;50.178;7.570;2023-02-04T11:45:19;98834.44;;;7.72;82.00
47330;BME280;33060;50.178;7.570;2023-02-04T11:47:46;98832.63;;;7.74;81.93
47330;BME280;33060;50.178;7.570;2023-02-04T11:50:28;98831.00;;;8.26;79.60
47330;BME280;33060;50.178;7.570;2023-02-04T11:52:57;98825.78;;;8.24;79.60
47330;BME280;33060;50.178;7.570;2023-02-04T11:55:25;98841.22;;;8.07;79.52
47330;BME280;33060;50.178;7.570;2023-02-04T11:57:54;98843.22;;;7.71;79.75
47330;BME280;33060;50.178;7.570;2023-02-04T12:02:55;98848.59;;;7.36;81.30
47330;BME280;33060;50.178;7.570;2023-02-04T12:05:34;98850.25;;;7.41;81.76
47330;BME280;33060;50.178;7.570;2023-02-04T12:08:32;98845.91;;;7.38;81.60
47330;BME280;33060;50.178;7.570;2023-02-04T12:11:09;98843.22;;;7.41;81.35
47330;BME280;33060;50.178;7.570;2023-02-04T12:13:52;98845.75;;;7.44;81.56
47330;BME280;33060;50.178;7.570;2023-02-04T12:16:19;98842.97;;;7.50;80.94
47330;BME280;33060;50.178;7.570;2023-02-04T12:18:46;98841.34;;;7.45;80.01
47330;BME280;33060;50.178;7.570;2023-02-04T12:21:13;98841.56;;;7.39;80.43
47330;BME280;33060;50.178;7.570;2023-02-04T12:23:40;98837.06;;;7.42;80.06
47330;BME280;33060;50.178;7.570;2023-02-04T12:26:10;98835.38;;;7.69;79.15
47330;BME280;33060;50.178;7.570;2023-02-04T12:28:37;98834.53;;;7.97;78.02
47330;BME280;33060;50.178;7.570;2023-02-04T12:31:03;98824.53;;;8.37;74.86
47330;BME280;33060;50.178;7.570;2023-02-04T12:33:31;98827.94;;;8.66;72.07
47330;BME280;33060;50.178;7.570;2023-02-04T12:35:57;98828.19;;;8.58;73.94
47330;BME280;33060;50.178;7.570;2023-02-04T12:38:24;98842.34;;;8.28;73.04
47330;BME280;33060;50.178;7.570;2023-02-04T12:40:50;98835.06;;;8.08;75.02
47330;BME280;33060;50.178;7.570;2023-02-04T12:43:17;98844.38;;;7.90;74.63
47330;BME280;33060;50.178;7.570;2023-02-04T12:45:44;98844.47;;;7.87;74.39
47330;BME280;33060;50.178;7.570;2023-02-04T12:48:14;98846.53;;;7.77;73.34
47330;BME280;33060;50.178;7.570;2023-02-04T12:50:41;98842.41;;;7.69;73.33
47330;BME280;33060;50.178;7.570;2023-02-04T12:53:09;98845.31;;;7.59;73.32
47330;BME280;33060;50.178;7.570;2023-02-04T12:55:36;98843.00;;;7.49;73.15
47330;BME280;33060;50.178;7.570;2023-02-04T12:58:04;98858.81;;;7.46;73.81
47330;BME280;33060;50.178;7.570;2023-02-04T13:00:31;98855.19;;;7.51;73.82
47330;BME280;33060;50.178;7.570;2023-02-04T13:02:59;98855.09;;;7.84;73.47
47330;BME280;33060;50.178;7.570;2023-02-04T13:05:27;98848.00;;;8.14;72.03
47330;BME280;33060;50.178;7.570;2023-02-04T13:07:54;98845.81;;;8.28;70.66
47330;BME280;33060;50.178;7.570;2023-02-04T13:10:22;98834.19;;;8.09;71.36
47330;BME280;33060;50.178;7.570;2023-02-04T13:12:50;98835.13;;;8.06;72.09
47330;BME280;33060;50.178;7.570;2023-02-04T13:15:18;98830.25;;;8.22;71.19
47330;BME280;33060;50.178;7.570;2023-02-04T13:17:46;98829.00;;;7.78;71.17
47330;BME280;33060;50.178;7.570;2023-02-04T13:20:25;98821.34;;;7.70;71.82
47330;BME280;33060;50.178;7.570;2023-02-04T13:22:52;98837.59;;;7.53;70.07
47330;BME280;33060;50.178;7.570;2023-02-04T13:25:20;98832.56;;;7.46;71.33
47330;BME280;33060;50.178;7.570;2023-02-04T13:27:47;98838.09;;;7.36;71.23
47330;BME280;33060;50.178;7.570;2023-02-04T13:30:15;98835.72;;;7.27;70.30